Time;durP1;ratioP1;P1;durP2;ratioP2;P2;SDS_P1;SDS_P2;PMS_P1;PMS_P2;Temp;Humidity;BMP_temperature;BMP_pressure;BME280_temperature;BME280_humidity;BME280_pressure;Samples;Min_cycle;Max_cycle;Signal;HPM_P1;HPM_P2
2023/11/04 00:00:07;;;;;;;0.57;0.57;;;;;;;9.70;100.00;96306.84;7423394;19;20034;-83
2023/11/04 00:02:33;;;;;;;0.20;0.20;;;;;;;10.09;100.00;96303.47;7424596;19;20382;-83
2023/11/04 00:04:59;;;;;;;1.27;1.05;;;;;;;9.78;100.00;96296.47;7424282;19;20014;-83
2023/11/04 00:07:26;;;;;;;0.35;0.35;;;;;;;9.98;100.00;96289.22;7424681;19;20023;-82
2023/11/04 00:09:52;;;;;;;1.30;1.20;;;;;;;9.52;100.00;96285.72;7422892;19;20372;-83
2023/11/04 00:12:18;;;;;;;0.25;0.25;;;;;;;10.13;100.00;96292.75;7424419;19;20011;-83
2023/11/04 00:14:44;;;;;;;0.10;0.10;;;;;;;9.87;100.00;96293.13;7423340;19;20028;-82
2023/11/04 00:17:10;;;;;;;0.20;0.20;;;;;;;9.93;100.00;96302.75;7422913;19;20006;-83
2023/11/04 00:19:36;;;;;;;0.20;0.20;;;;;;;10.17;100.00;96304.25;7420982;19;20073;-83
2023/11/04 00:22:02;;;;;;;1.10;0.65;;;;;;;9.83;100.00;96296.25;7423220;19;20010;-83
2023/11/04 00:24:28;;;;;;;0.30;0.30;;;;;;;9.94;100.00;96287.56;7421694;19;20035;-83
2023/11/04 00:26:55;;;;;;;0.10;0.10;;;;;;;9.74;100.00;96273.88;7422849;19;20349;-82
2023/11/04 00:29:21;;;;;;;0.10;0.10;;;;;;;9.82;100.00;96263.50;7420942;19;20010;-83
2023/11/04 00:31:48;;;;;;;0.50;0.50;;;;;;;10.00;100.00;96256.81;7423978;19;20353;-83
2023/11/04 00:34:15;;;;;;;1.05;0.50;;;;;;;9.22;100.00;96257.94;7425717;19;20074;-83
2023/11/04 00:36:41;;;;;;;0.28;0.28;;;;;;;8.85;100.00;96251.78;7421016;19;20013;-84
2023/11/04 00:39:09;;;;;;;0.30;0.30;;;;;;;9.39;100.00;96249.81;7423215;19;20010;-83
2023/11/04 00:41:35;;;;;;;0.28;0.25;;;;;;;8.92;100.00;96244.75;7424069;19;20011;-83
2023/11/04 00:44:01;;;;;;;1.05;0.17;;;;;;;9.50;100.00;96241.09;7422873;19;20073;-82
2023/11/04 00:46:27;;;;;;;0.30;0.30;;;;;;;9.64;100.00;96232.00;7423197;19;20014;-83
2023/11/04 00:48:53;;;;;;;0.47;0.35;;;;;;;9.05;100.00;96239.03;7400885;19;20501;-83
2023/11/04 00:51:19;;;;;;;0.10;0.10;;;;;;;9.69;100.00;96238.69;7393551;19;20007;-83
2023/11/04 00:53:45;;;;;;;0.30;0.30;;;;;;;8.73;100.00;96231.19;7394536;19;20030;-83
2023/11/04 00:56:12;;;;;;;0.30;0.30;;;;;;;9.58;100.00;96242.59;7393351;19;20018;-83
2023/11/04 00:58:38;;;;;;;0.17;0.17;;;;;;;10.87;100.00;96228.31;7393315;19;20003;-83
2023/11/04 01:01:06;;;;;;;0.15;0.15;;;;;;;10.69;100.00;96224.69;7393361;19;20015;-83
2023/11/04 01:03:33;;;;;;;0.10;0.10;;;;;;;10.60;100.00;96226.03;7393307;19;20018;-83
2023/11/04 01:05:59;;;;;;;0.20;0.20;;;;;;;9.98;100.00;96222.53;7395802;19;20010;-83
2023/11/04 01:08:25;;;;;;;1.45;0.95;;;;;;;9.80;100.00;96218.84;7393738;19;20406;-83
2023/11/04 01:10:51;;;;;;;0.38;0.32;;;;;;;9.60;100.00;96214.97;7395038;19;20007;-83
2023/11/04 01:13:17;;;;;;;1.15;1.05;;;;;;;8.75;100.00;96211.97;7392067;19;20070;-83
2023/11/04 01:15:43;;;;;;;0.40;0.40;;;;;;;8.41;100.00;96203.19;7393147;19;20014;-83
2023/11/04 01:18:09;;;;;;;0.10;0.10;;;;;;;22.30;100.00;96180.94;7394402;19;20015;-83
2023/11/04 01:20:36;;;;;;;0.22;0.22;;;;;;;10.24;100.00;96197.09;7391590;19;20014;-81
2023/11/04 01:23:02;;;;;;;0.20;0.20;;;;;;;8.36;100.00;96195.78;7392603;19;20022;-83
2023/11/04 01:25:29;;;;;;;0.35;0.35;;;;;;;8.33;100.00;96194.13;7392417;19;20488;-83
2023/11/04 01:27:55;;;;;;;0.30;0.30;;;;;;;8.10;100.00;96193.25;7392705;19;20330;-83
2023/11/04 01:30:21;;;;;;;0.40;0.20;;;;;;;8.19;100.00;96189.94;7391938;19;20078;-82
2023/11/04 01:32:47;;;;;;;0.52;0.10;;;;;;;8.31;100.00;96191.16;7394525;19;20002;-83
2023/11/04 01:35:13;;;;;;;0.43;0.43;;;;;;;8.18;100.00;96188.47;7393007;19;20070;-83
2023/11/04 01:37:40;;;;;;;0.43;0.38;;;;;;;8.41;100.00;96181.00;7391131;19;20007;-83
2023/11/04 01:40:10;;;;;;;0.57;0.57;;;;;;;8.16;100.00;96179.97;7389668;19;20382;-83
2023/11/04 01:42:44;;;;;;;0.20;0.20;;;;;;;7.34;100.00;96178.97;7392900;19;20023;-83
2023/11/04 01:45:11;;;;;;;0.10;0.10;;;;;;;7.90;100.00;96163.59;7392179;19;20015;-82
2023/11/04 01:47:40;;;;;;;0.10;0.10;;;;;;;8.00;100.00;96162.53;7390853;19;20024;-83
2023/11/04 01:50:07;;;;;;;0.17;0.17;;;;;;;8.01;100.00;96164.00;7393241;19;20460;-83
2023/11/04 01:52:37;;;;;;;0.90;0.22;;;;;;;7.62;100.00;96162.34;7392793;19;20011;-83
2023/11/04 01:55:05;;;;;;;0.20;0.20;;;;;;;7.47;100.00;96156.72;7391478;19;20007;-83
2023/11/04 01:57:32;;;;;;;0.25;0.25;;;;;;;7.93;100.00;96145.88;7391172;19;20011;-83
2023/11/04 01:59:59;;;;;;;0.17;0.17;;;;;;;7.73;100.00;96144.69;7389285;19;20010;-83
2023/11/04 02:02:27;;;;;;;0.22;0.13;;;;;;;7.53;100.00;96140.72;7390776;19;20003;-83
2023/11/04 02:04:54;;;;;;;0.75;0.75;;;;;;;7.57;100.00;96127.25;7393828;19;20014;-82
2023/11/04 02:07:22;;;;;;;0.52;0.52;;;;;;;7.69;100.00;96124.19;7392039;19;20022;-83
2023/11/04 02:09:48;;;;;;;3.88;1.15;;;;;;;7.86;100.00;96122.38;7390148;19;20357;-83
2023/11/04 02:12:14;;;;;;;0.20;0.20;;;;;;;7.70;100.00;96122.88;7391033;19;20370;-82
2023/11/04 02:14:50;;;;;;;0.30;0.30;;;;;;;7.99;100.00;96122.25;7391327;19;20014;-82
2023/11/04 02:17:17;;;;;;;0.10;0.10;;;;;;;8.07;100.00;96111.97;7392477;19;20372;-83
2023/11/04 02:19:44;;;;;;;0.10;0.10;;;;;;;7.53;100.00;96115.06;7391162;19;20086;-83
2023/11/04 02:22:10;;;;;;;0.17;0.17;;;;;;;7.64;100.00;96101.63;7391989;19;20361;-82
2023/11/04 02:24:36;;;;;;;0.52;0.50;;;;;;;7.39;100.00;96100.59;7395310;19;20018;-82
2023/11/04 02:27:03;;;;;;;0.22;0.22;;;;;;;7.36;100.00;96090.59;7395052;19;20035;-82
2023/11/04 02:29:30;;;;;;;0.85;0.43;;;;;;;7.64;100.00;96082.25;7391422;19;20010;-83
2023/11/04 02:31:56;;;;;;;0.20;0.20;;;;;;;7.79;100.00;96080.84;7390611;19;20428;-83
2023/11/04 02:34:22;;;;;;;1.05;0.73;;;;;;;7.80;100.00;96080.28;7390071;19;20078;-83
2023/11/04 02:36:48;;;;;;;0.28;0.28;;;;;;;8.13;100.00;96070.22;7391728;19;20018;-83
2023/11/04 02:39:15;;;;;;;0.52;0.52;;;;;;;7.21;100.00;96065.59;7391328;19;20021;-82
2023/11/04 02:41:41;;;;;;;3.20;0.50;;;;;;;7.01;100.00;96049.06;7392445;19;20006;-83
2023/11/04 02:44:07;;;;;;;0.15;0.15;;;;;;;7.28;100.00;96056.59;7368903;19;20014;-83
2023/11/04 02:46:34;;;;;;;0.30;0.30;;;;;;;7.00;100.00;96053.84;7387898;19;20390;-82
2023/11/04 02:49:00;;;;;;;0.10;0.10;;;;;;;7.40;100.00;96052.25;7389408;19;20354;-83
2023/11/04 02:51:26;;;;;;;0.35;0.35;;;;;;;7.13;100.00;96028.84;7387894;19;20379;-83
2023/11/04 02:53:52;;;;;;;0.30;0.30;;;;;;;7.17;100.00;96031.28;7389355;19;20074;-82
2023/11/04 02:56:19;;;;;;;0.13;0.13;;;;;;;7.29;100.00;96024.88;7386600;19;20003;-83
2023/11/04 02:58:45;;;;;;;0.10;0.10;;;;;;;6.81;100.00;96014.66;7390046;19;20470;-83
2023/11/04 03:01:11;;;;;;;0.32;0.32;;;;;;;6.93;100.00;96010.28;7390467;19;20015;-82
2023/11/04 03:03:37;;;;;;;0.90;0.90;;;;;;;7.31;100.00;96004.97;7388641;19;20583;-83
2023/11/04 03:06:04;;;;;;;0.20;0.20;;;;;;;6.64;100.00;95987.47;7387495;19;20636;-83
2023/11/04 03:08:31;;;;;;;0.35;0.35;;;;;;;7.45;100.00;95976.59;7388350;19;20026;-83
2023/11/04 03:10:57;;;;;;;0.70;0.68;;;;;;;7.46;100.00;95978.09;7387567;19;20409;-83
2023/11/04 03:13:23;;;;;;;1.05;0.95;;;;;;;7.19;100.00;95976.16;7389677;19;20031;-83
2023/11/04 03:15:50;;;;;;;0.20;0.20;;;;;;;7.12;100.00;95966.53;7390797;19;20365;-83
2023/11/04 03:18:16;;;;;;;0.50;0.50;;;;;;;7.39;100.00;95967.72;7388675;19;20006;-83
2023/11/04 03:20:42;;;;;;;0.20;0.20;;;;;;;7.32;100.00;95968.44;7387307;19;20010;-83
2023/11/04 03:23:08;;;;;;;3.50;0.75;;;;;;;6.95;100.00;95963.50;7389582;19;20024;-83
2023/11/04 03:25:34;;;;;;;0.20;0.20;;;;;;;7.31;100.00;95957.91;7366932;19;20006;-83
2023/11/04 03:28:00;;;;;;;5.45;0.68;;;;;;;7.74;100.00;95957.09;7389267;19;20002;-82
2023/11/04 03:30:27;;;;;;;0.10;0.10;;;;;;;7.34;100.00;95949.25;7387573;19;19998;-83
2023/11/04 03:32:53;;;;;;;0.20;0.20;;;;;;;7.67;100.00;95963.41;7389876;19;20006;-83
2023/11/04 03:35:19;;;;;;;0.30;0.30;;;;;;;7.48;100.00;95961.66;7390278;19;20014;-83
2023/11/04 03:37:45;;;;;;;0.20;0.20;;;;;;;8.53;100.00;95957.56;7388937;19;20010;-83
2023/11/04 03:40:12;;;;;;;0.45;0.45;;;;;;;6.94;100.00;95950.94;7388707;19;20541;-83
2023/11/04 03:42:38;;;;;;;1.48;0.30;;;;;;;6.74;100.00;95943.44;7387788;19;20474;-83
2023/11/04 03:45:06;;;;;;;0.20;0.20;;;;;;;6.43;100.00;95930.75;7388879;19;20023;-82
2023/11/04 03:47:32;;;;;;;0.40;0.40;;;;;;;6.65;100.00;95935.66;7387349;19;20357;-82
2023/11/04 03:49:58;;;;;;;0.10;0.10;;;;;;;6.75;100.00;95933.88;7387122;19;20018;-83
2023/11/04 03:52:24;;;;;;;0.30;0.30;;;;;;;6.60;100.00;95929.03;7389143;19;20019;-83
2023/11/04 03:54:50;;;;;;;0.38;0.38;;;;;;;6.52;100.00;95916.44;7388265;19;20014;-83
2023/11/04 03:57:16;;;;;;;0.10;0.10;;;;;;;6.35;100.00;95913.38;7389362;19;20017;-82
2023/11/04 03:59:43;;;;;;;0.30;0.30;;;;;;;6.85;100.00;95910.72;7385791;19;20036;-83
2023/11/04 04:02:10;;;;;;;0.47;0.30;;;;;;;7.11;100.00;95904.16;7385736;19;20003;-83
2023/11/04 04:04:36;;;;;;;0.25;0.25;;;;;;;7.12;100.00;95894.59;7385892;19;20015;-83
2023/11/04 04:07:02;;;;;;;0.63;0.63;;;;;;;7.09;100.00;95892.91;7388313;19;20458;-83
2023/11/04 04:09:28;;;;;;;1.38;0.40;;;;;;;7.21;100.00;95887.81;7385941;19;20009;-83
2023/11/04 04:11:56;;;;;;;0.10;0.10;;;;;;;7.55;100.00;95880.69;7388622;19;20006;-82
2023/11/04 04:14:22;;;;;;;0.20;0.20;;;;;;;7.70;100.00;95873.66;7386726;19;20062;-83
2023/11/04 04:16:48;;;;;;;0.40;0.40;;;;;;;7.77;100.00;95861.88;7386911;19;20501;-83
2023/11/04 04:19:14;;;;;;;1.38;1.25;;;;;;;7.26;100.00;95862.72;7384824;19;20007;-83
2023/11/04 04:21:40;;;;;;;0.10;0.08;;;;;;;7.73;100.00;95858.72;7385108;19;20102;-83
2023/11/04 04:24:08;;;;;;;0.10;0.10;;;;;;;7.50;100.00;95844.84;7389870;19;20043;-83
2023/11/04 04:26:34;;;;;;;0.20;0.20;;;;;;;7.50;100.00;95842.84;7391135;19;20020;-83
2023/11/04 04:29:00;;;;;;;0.40;0.38;;;;;;;7.37;100.00;95840.22;7391370;19;20014;-83
2023/11/04 04:31:27;;;;;;;0.38;0.28;;;;;;;7.79;100.00;95818.47;7389546;19;20003;-83
2023/11/04 04:33:53;;;;;;;0.17;0.17;;;;;;;7.54;100.00;95821.06;7394237;19;20113;-83
2023/11/04 04:36:19;;;;;;;0.50;0.50;;;;;;;7.49;100.00;95816.44;7392286;19;20427;-83
2023/11/04 04:38:46;;;;;;;0.45;0.45;;;;;;;7.76;100.00;95805.72;7395862;19;20006;-83
2023/11/04 04:41:12;;;;;;;0.20;0.20;;;;;;;7.10;100.00;95803.13;7394197;19;20040;-83
2023/11/04 04:43:38;;;;;;;0.88;0.88;;;;;;;7.21;100.00;95791.69;7392536;19;20022;-83
2023/11/04 04:46:04;;;;;;;3.20;0.68;;;;;;;7.16;100.00;95789.84;7393194;19;20603;-83
2023/11/04 04:48:31;;;;;;;0.43;0.25;;;;;;;7.32;100.00;95790.59;7391180;19;20100;-83
2023/11/04 04:50:57;;;;;;;1.77;0.93;;;;;;;7.38;100.00;95783.59;7395397;19;20003;-82
2023/11/04 04:53:24;;;;;;;0.10;0.10;;;;;;;7.78;100.00;95778.22;7393369;19;20006;-82
2023/11/04 04:55:53;;;;;;;0.20;0.20;;;;;;;7.90;100.00;95781.34;7393753;19;20018;-83
2023/11/04 04:58:21;;;;;;;0.30;0.30;;;;;;;8.06;100.00;95778.00;7391967;19;20086;-83
2023/11/04 05:00:47;;;;;;;0.22;0.22;;;;;;;7.03;100.00;95780.97;7393242;19;20049;-84
2023/11/04 05:03:13;;;;;;;0.15;0.15;;;;;;;6.71;100.00;95773.16;7393966;19;20428;-83
2023/11/04 05:05:39;;;;;;;0.30;0.10;;;;;;;7.82;100.00;95758.47;7392334;19;19999;-82
2023/11/04 05:08:06;;;;;;;0.20;0.20;;;;;;;8.05;100.00;95759.16;7394695;19;20385;-83
2023/11/04 05:10:33;;;;;;;0.10;0.10;;;;;;;7.76;100.00;95755.88;7392952;19;20390;-83
2023/11/04 05:12:59;;;;;;;0.43;0.43;;;;;;;7.84;100.00;95756.59;7393171;19;20375;-83
2023/11/04 05:15:25;;;;;;;0.40;0.40;;;;;;;8.62;100.00;95748.28;7393534;19;20018;-83
2023/11/04 05:17:51;;;;;;;0.55;0.40;;;;;;;8.28;100.00;95751.53;7392343;19;20108;-83
2023/11/04 05:20:18;;;;;;;2.63;0.50;;;;;;;8.57;100.00;95738.88;7391165;19;20010;-82
2023/11/04 05:22:44;;;;;;;0.10;0.10;;;;;;;7.80;100.00;95736.13;7394037;19;20356;-83
2023/11/04 05:25:10;;;;;;;0.10;0.10;;;;;;;8.95;100.00;95730.31;7392215;19;20010;-83
2023/11/04 05:27:36;;;;;;;0.47;0.47;;;;;;;9.11;100.00;95723.38;7391705;19;20006;-83
2023/11/04 05:30:05;;;;;;;0.10;0.10;;;;;;;9.78;100.00;95719.31;7391527;19;20487;-83
2023/11/04 05:32:31;;;;;;;1.85;1.17;;;;;;;9.78;100.00;95710.22;7391612;19;20085;-82
2023/11/04 05:34:58;;;;;;;0.40;0.40;;;;;;;8.77;100.00;95714.91;7392561;19;20039;-83
2023/11/04 05:37:24;;;;;;;0.15;0.15;;;;;;;8.99;100.00;95706.44;7391090;19;20483;-88
2023/11/04 05:39:50;;;;;;;2.20;1.20;;;;;;;9.55;100.00;95695.81;7391878;19;20014;-84
2023/11/04 05:42:16;;;;;;;0.55;0.52;;;;;;;9.32;100.00;95700.81;7393413;19;20031;-83
2023/11/04 05:44:42;;;;;;;0.45;0.45;;;;;;;9.15;100.00;95682.09;7393680;19;20014;-83
2023/11/04 05:47:08;;;;;;;0.22;0.22;;;;;;;8.52;100.00;95684.34;7394181;19;20010;-84
2023/11/04 05:49:34;;;;;;;0.40;0.40;;;;;;;8.55;100.00;95672.16;7391466;19;20478;-84
2023/11/04 05:52:01;;;;;;;0.95;0.95;;;;;;;8.74;100.00;95666.09;7392345;19;20118;-83
2023/11/04 05:54:27;;;;;;;3.42;1.17;;;;;;;8.65;100.00;95680.59;7391597;19;20519;-83
2023/11/04 05:56:53;;;;;;;1.42;1.30;;;;;;;8.66;100.00;95682.06;7391635;19;20007;-83
2023/11/04 05:59:19;;;;;;;0.40;0.40;;;;;;;8.71;100.00;95667.22;7391329;19;20014;-83
2023/11/04 06:01:45;;;;;;;0.63;0.50;;;;;;;9.13;100.00;95663.22;7392773;19;20010;-84
2023/11/04 06:04:11;;;;;;;0.35;0.35;;;;;;;8.92;100.00;95671.16;7392591;19;20024;-83
2023/11/04 06:06:37;;;;;;;0.40;0.40;;;;;;;8.50;100.00;95670.31;7391780;19;20470;-83
2023/11/04 06:09:03;;;;;;;0.20;0.20;;;;;;;8.36;100.00;95663.53;7393179;19;20011;-83
2023/11/04 06:11:30;;;;;;;0.60;0.60;;;;;;;9.35;100.00;95644.16;7392074;19;20398;-83
2023/11/04 06:13:56;;;;;;;0.22;0.22;;;;;;;9.02;100.00;95635.19;7391630;19;20366;-83
2023/11/04 06:16:22;;;;;;;0.10;0.10;;;;;;;8.55;100.00;95638.88;7389645;19;20002;-83
2023/11/04 06:18:48;;;;;;;0.45;0.45;;;;;;;8.96;100.00;95621.56;7392855;19;20017;-83
2023/11/04 06:21:16;;;;;;;0.82;0.82;;;;;;;8.96;100.00;95632.66;7390354;19;20013;-83
2023/11/04 06:23:42;;;;;;;0.77;0.77;;;;;;;8.41;100.00;95623.78;7390555;19;20022;-84
2023/11/04 06:26:08;;;;;;;2.30;0.60;;;;;;;8.56;100.00;95623.69;7392447;19;20379;-84
2023/11/04 06:28:34;;;;;;;0.82;0.82;;;;;;;8.92;100.00;95601.78;7391875;19;20007;-84
2023/11/04 06:31:09;;;;;;;0.40;0.35;;;;;;;8.67;100.00;95605.88;7393699;19;20015;-83
2023/11/04 06:33:35;;;;;;;27.05;1.75;;;;;;;8.31;100.00;95581.38;7392509;19;20007;-83
2023/11/04 06:36:01;;;;;;;1.65;0.90;;;;;;;8.53;100.00;95577.72;7392937;19;20007;-84
2023/11/04 06:38:27;;;;;;;0.80;0.80;;;;;;;8.79;100.00;95556.97;7390541;19;20018;-83
2023/11/04 06:40:53;;;;;;;0.40;0.32;;;;;;;8.79;100.00;95552.16;7393103;19;20006;-83
2023/11/04 06:43:19;;;;;;;3.35;0.82;;;;;;;8.83;100.00;95544.19;7392076;19;20070;-83
2023/11/04 06:45:45;;;;;;;0.30;0.30;;;;;;;8.94;100.00;95529.81;7389311;19;20020;-83
2023/11/04 06:48:12;;;;;;;0.10;0.10;;;;;;;8.85;100.00;95522.16;7389233;19;20045;-83
2023/11/04 06:50:38;;;;;;;0.10;0.10;;;;;;;9.33;100.00;95519.09;7392143;19;20010;-83
2023/11/04 06:53:04;;;;;;;1.55;0.40;;;;;;;9.06;100.00;95525.28;7390101;19;20034;-83
2023/11/04 06:55:32;;;;;;;2.88;0.95;;;;;;;9.11;100.00;95512.47;7389998;19;20761;-83
2023/11/04 06:57:58;;;;;;;0.28;0.28;;;;;;;8.51;100.00;95510.25;7390283;19;20018;-83
2023/11/04 07:00:24;;;;;;;0.13;0.13;;;;;;;8.81;100.00;95512.78;7388186;19;20035;-83
2023/11/04 07:02:50;;;;;;;0.10;0.10;;;;;;;8.74;100.00;95494.91;7390459;19;20010;-83
2023/11/04 07:05:16;;;;;;;0.77;0.55;;;;;;;8.78;100.00;95492.44;7389806;19;20011;-83
2023/11/04 07:07:43;;;;;;;0.88;0.88;;;;;;;8.93;100.00;95483.97;7389650;19;20010;-83
2023/11/04 07:10:12;;;;;;;0.20;0.20;;;;;;;8.63;100.00;95478.72;7390929;19;20014;-83
2023/11/04 07:12:38;;;;;;;0.63;0.63;;;;;;;8.47;100.00;95482.22;7388940;19;20011;-83
2023/11/04 07:15:05;;;;;;;0.20;0.20;;;;;;;8.10;100.00;95483.94;7390866;19;20415;-83
2023/11/04 07:17:31;;;;;;;0.85;0.85;;;;;;;8.20;100.00;95487.56;7388462;19;20007;-83
2023/11/04 07:19:57;;;;;;;0.20;0.20;;;;;;;8.27;100.00;95478.50;7390667;19;20061;-83
2023/11/04 07:22:24;;;;;;;0.52;0.52;;;;;;;7.87;100.00;95466.72;7388070;19;20033;-83
2023/11/04 07:24:50;;;;;;;0.68;0.50;;;;;;;8.10;100.00;95461.78;7390155;19;20036;-83
2023/11/04 07:27:16;;;;;;;0.55;0.52;;;;;;;7.95;100.00;95450.81;7389369;19;20007;-83
2023/11/04 07:29:42;;;;;;;0.77;0.50;;;;;;;8.09;100.00;95449.22;7388713;19;20014;-84
2023/11/04 07:32:10;;;;;;;0.25;0.20;;;;;;;8.42;100.00;95441.59;7388258;19;20347;-83
2023/11/04 07:34:36;;;;;;;2.42;0.85;;;;;;;8.07;100.00;95433.16;7388046;19;20025;-83
2023/11/04 07:37:02;;;;;;;0.20;0.20;;;;;;;8.38;100.00;95422.59;7389803;19;20066;-83
2023/11/04 07:39:29;;;;;;;0.43;0.43;;;;;;;8.72;100.00;95419.84;7387779;19;20007;-83
2023/11/04 07:41:56;;;;;;;0.20;0.20;;;;;;;9.13;100.00;95418.28;7389265;19;20711;-83
2023/11/04 07:44:22;;;;;;;0.20;0.20;;;;;;;8.48;100.00;95406.03;7388284;19;20003;-83
2023/11/04 07:46:48;;;;;;;0.10;0.10;;;;;;;8.74;100.00;95389.50;7389935;19;20350;-83
2023/11/04 07:49:14;;;;;;;0.20;0.20;;;;;;;8.74;100.00;95388.75;7386221;19;20011;-83
2023/11/04 07:51:41;;;;;;;0.30;0.30;;;;;;;8.60;100.00;95393.91;7388456;19;20010;-84
2023/11/04 07:54:07;;;;;;;0.15;0.15;;;;;;;8.00;100.00;95383.34;7388642;19;20010;-83
2023/11/04 07:56:33;;;;;;;0.75;0.30;;;;;;;8.20;100.00;95382.25;7388255;19;20063;-83
2023/11/04 07:58:59;;;;;;;0.68;0.57;;;;;;;8.50;100.00;95373.69;7391793;19;20482;-83
2023/11/04 08:01:25;;;;;;;0.35;0.35;;;;;;;8.52;100.00;95378.66;7394048;19;20022;-83
2023/11/04 08:03:51;;;;;;;0.10;0.10;;;;;;;8.84;100.00;95365.34;7396846;19;20021;-83
2023/11/04 08:06:18;;;;;;;0.20;0.20;;;;;;;8.61;100.00;95364.88;7395710;19;20406;-82
2023/11/04 08:08:44;;;;;;;0.10;0.10;;;;;;;8.89;100.00;95361.59;7394023;19;20006;-82
2023/11/04 08:11:11;;;;;;;0.22;0.22;;;;;;;9.02;100.00;95354.97;7395159;19;20014;-82
2023/11/04 08:13:38;;;;;;;0.17;0.17;;;;;;;8.43;100.00;95346.75;7393710;19;20026;-82
2023/11/04 08:16:04;;;;;;;0.45;0.45;;;;;;;8.78;100.00;95345.44;7395074;19;20015;-82
2023/11/04 08:18:31;;;;;;;0.22;0.22;;;;;;;8.88;100.00;95337.91;7392539;19;20003;-82
2023/11/04 08:20:57;;;;;;;0.10;0.10;;;;;;;9.15;100.00;95332.41;7394938;19;20011;-82
2023/11/04 08:23:24;;;;;;;0.20;0.20;;;;;;;9.33;100.00;95327.53;7395220;19;20021;-82
2023/11/04 08:25:50;;;;;;;0.57;0.47;;;;;;;9.50;100.00;95319.88;7395662;19;20082;-81
2023/11/04 08:28:16;;;;;;;0.47;0.20;;;;;;;9.24;100.00;95317.13;7395230;19;20365;-80
2023/11/04 08:30:42;;;;;;;5.28;0.45;;;;;;;9.22;100.00;95311.41;7395460;19;20363;-81
2023/11/04 08:33:08;;;;;;;1.10;0.55;;;;;;;9.11;100.00;95307.13;7394216;19;20015;-81
2023/11/04 08:35:34;;;;;;;0.30;0.30;;;;;;;9.47;100.00;95307.13;7395307;19;20047;-80
2023/11/04 08:38:01;;;;;;;1.17;0.50;;;;;;;9.81;100.00;95301.41;7394369;19;20010;-80
2023/11/04 08:40:27;;;;;;;0.35;0.25;;;;;;;10.02;100.00;95300.88;7394875;19;20470;-80
2023/11/04 08:42:53;;;;;;;0.10;0.10;;;;;;;9.80;100.00;95299.22;7395845;19;20010;-80
2023/11/04 08:45:20;;;;;;;0.20;0.20;;;;;;;9.36;100.00;95290.28;7394468;19;20731;-79
2023/11/04 08:47:46;;;;;;;0.10;0.10;;;;;;;9.29;100.00;95285.59;7393205;19;20042;-80
2023/11/04 08:50:13;;;;;;;0.82;0.28;;;;;;;9.50;100.00;95288.59;7392691;19;20022;-80
2023/11/04 08:52:39;;;;;;;1.35;0.47;;;;;;;9.98;100.00;95281.13;7395185;19;20003;-80
2023/11/04 08:55:06;;;;;;;0.20;0.20;;;;;;;9.43;100.00;95279.06;7393438;19;20493;-80
2023/11/04 08:57:32;;;;;;;0.10;0.10;;;;;;;9.73;100.00;95283.41;7393781;19;20045;-80
2023/11/04 09:00:00;;;;;;;0.77;0.30;;;;;;;9.84;100.00;95282.84;7393678;19;20346;-80
2023/11/04 09:02:26;;;;;;;0.60;0.13;;;;;;;9.77;100.00;95273.31;7391835;19;20127;-81
2023/11/04 09:04:52;;;;;;;0.70;0.45;;;;;;;9.84;100.00;95275.25;7392921;19;20078;-80
2023/11/04 09:07:18;;;;;;;0.20;0.20;;;;;;;9.28;100.00;95273.00;7392990;19;20003;-80
2023/11/04 09:09:45;;;;;;;0.30;0.30;;;;;;;9.08;100.00;95278.47;7392839;19;20021;-80
2023/11/04 09:12:11;;;;;;;0.10;0.10;;;;;;;9.39;100.00;95272.47;7392314;19;20035;-79
2023/11/04 09:14:37;;;;;;;0.90;0.32;;;;;;;9.28;100.00;95264.69;7391497;19;20057;-79
2023/11/04 09:17:04;;;;;;;0.10;0.10;;;;;;;9.28;100.00;95267.47;7391072;19;20010;-80
2023/11/04 09:19:30;;;;;;;1.17;0.43;;;;;;;9.53;100.00;95271.50;7390814;19;20066;-80
2023/11/04 09:21:56;;;;;;;0.10;0.10;;;;;;;9.25;100.00;95257.53;7393649;19;20002;-80
2023/11/04 09:24:22;;;;;;;0.13;0.13;;;;;;;10.17;100.00;95256.16;7392200;19;20026;-79
2023/11/04 09:26:48;;;;;;;0.30;0.30;;;;;;;9.69;100.00;95255.31;7393871;19;20060;-80
2023/11/04 09:29:14;;;;;;;5.97;0.98;;;;;;;9.50;100.00;95258.06;7392563;19;20010;-79
2023/11/04 09:31:40;;;;;;;0.57;0.50;;;;;;;9.31;100.00;95255.22;7393498;19;20007;-80
2023/11/04 09:34:08;;;;;;;0.95;0.10;;;;;;;9.36;100.00;95246.59;7392403;19;20006;-80
2023/11/04 09:36:35;;;;;;;0.30;0.10;;;;;;;9.65;100.00;95241.13;7391030;19;20018;-80
2023/11/04 09:39:01;;;;;;;0.90;0.20;;;;;;;9.16;100.00;95228.41;7393182;19;20007;-80
2023/11/04 09:41:27;;;;;;;0.10;0.10;;;;;;;9.45;100.00;95220.19;7392807;19;20023;-80
2023/11/04 09:43:53;;;;;;;0.10;0.10;;;;;;;9.83;100.00;95217.50;7391116;19;20011;-80
2023/11/04 09:46:20;;;;;;;0.30;0.30;;;;;;;9.38;100.00;95218.25;7393380;19;20021;-80
2023/11/04 09:48:47;;;;;;;0.20;0.20;;;;;;;9.48;100.00;95207.94;7392830;19;20022;-80
2023/11/04 09:51:15;;;;;;;0.20;0.10;;;;;;;9.38;100.00;95209.91;7391650;19;20413;-79
2023/11/04 09:53:57;;;;;;;1.30;0.63;;;;;;;9.94;100.00;95197.44;7390207;19;20013;-80
2023/11/04 09:56:23;;;;;;;0.10;0.10;;;;;;;9.57;100.00;95196.81;7389467;19;20011;-81
2023/11/04 09:58:50;;;;;;;0.10;0.00;;;;;;;9.82;100.00;95186.22;7392580;19;20057;-81
2023/11/04 10:01:20;;;;;;;0.40;0.30;;;;;;;11.08;100.00;95173.59;7391986;19;20466;-81
2023/11/04 10:03:47;;;;;;;0.95;0.28;;;;;;;9.53;100.00;95163.22;7390223;19;20026;-81
2023/11/04 10:06:15;;;;;;;0.30;0.25;;;;;;;9.48;100.00;95163.50;7392600;19;20010;-81
2023/11/04 10:08:42;;;;;;;0.10;0.10;;;;;;;9.72;100.00;95160.44;7391580;19;20014;-81
2023/11/04 10:11:09;;;;;;;0.10;0.10;;;;;;;9.81;100.00;95150.69;7390273;19;20047;-81
2023/11/04 10:13:36;;;;;;;1.85;0.30;;;;;;;10.87;100.00;95140.13;7391853;19;20014;-80
2023/11/04 10:16:03;;;;;;;0.10;0.10;;;;;;;14.35;100.00;95128.44;7393511;19;20454;-80
2023/11/04 10:18:33;;;;;;;9.82;0.63;;;;;;;13.15;100.00;95122.13;7391239;19;20023;-81
2023/11/04 10:21:00;;;;;;;0.15;0.15;;;;;;;11.44;100.00;95121.06;7388400;19;20017;-80
2023/11/04 10:23:27;;;;;;;0.10;0.10;;;;;;;10.72;100.00;95121.00;7389631;19;20023;-81
2023/11/04 10:25:53;;;;;;;0.57;0.47;;;;;;;10.50;100.00;95117.41;7390001;19;20011;-80
2023/11/04 10:28:20;;;;;;;0.10;0.10;;;;;;;10.36;100.00;95103.25;7390636;19;20018;-82
2023/11/04 10:30:46;;;;;;;0.10;0.10;;;;;;;10.34;100.00;95094.75;7390419;19;20549;-82
2023/11/04 10:33:13;;;;;;;0.10;0.08;;;;;;;10.28;100.00;95093.63;7390221;19;20015;-82
2023/11/04 10:35:42;;;;;;;0.20;0.20;;;;;;;10.16;100.00;95085.13;7390738;19;20552;-81
2023/11/04 10:38:14;;;;;;;2.08;1.17;;;;;;;10.85;100.00;95073.22;7389883;19;20034;-81
2023/11/04 10:40:41;;;;;;;0.10;0.05;;;;;;;11.74;100.00;95069.41;7390934;19;20007;-81
2023/11/04 10:43:10;;;;;;;0.10;0.10;;;;;;;11.36;100.00;95058.53;7390358;19;19999;-83
2023/11/04 10:45:44;;;;;;;0.30;0.20;;;;;;;11.04;100.00;95050.84;7391155;19;20014;-84
2023/11/04 10:48:17;;;;;;;0.10;0.10;;;;;;;11.14;100.00;95048.72;7390229;19;20018;-83
2023/11/04 10:50:47;;;;;;;0.68;0.35;;;;;;;11.26;100.00;95035.59;7389995;19;20013;-83
2023/11/04 10:53:39;;;;;;;0.10;0.10;;;;;;;10.64;100.00;95027.31;7391910;19;20125;-84
2023/11/04 10:56:15;;;;;;;0.20;0.10;;;;;;;11.05;100.00;95016.09;7390252;19;20338;-84
2023/11/04 10:58:56;;;;;;;0.10;0.10;;;;;;;10.13;100.00;95011.28;7388658;19;20010;-85
2023/11/04 11:01:23;;;;;;;0.10;0.10;;;;;;;10.17;100.00;94999.72;7389303;19;20039;-85
2023/11/04 11:03:51;;;;;;;0.20;0.20;;;;;;;10.27;100.00;94995.56;7390205;19;19994;-83
2023/11/04 11:06:20;;;;;;;0.10;0.10;;;;;;;10.28;100.00;94985.94;7385694;19;20017;-85
2023/11/04 11:08:47;;;;;;;0.10;0.10;;;;;;;10.00;100.00;94975.63;7390791;19;20011;-84
2023/11/04 11:11:41;;;;;;;0.10;0.10;;;;;;;9.85;100.00;94967.63;7396404;19;20015;-84
2023/11/04 11:14:07;;;;;;;0.10;0.03;;;;;;;10.24;100.00;94957.13;7392325;19;20014;-85
2023/11/04 11:16:34;;;;;;;0.10;0.10;;;;;;;10.04;100.00;94959.22;7395704;19;20040;-85
2023/11/04 11:19:08;;;;;;;0.10;0.10;;;;;;;9.91;100.00;94948.59;7393374;19;20010;-84
2023/11/04 11:21:49;;;;;;;0.10;0.10;;;;;;;10.08;100.00;94928.91;7391558;19;20021;-85
2023/11/04 11:24:16;;;;;;;0.10;0.10;;;;;;;10.27;100.00;94914.22;7394623;19;20373;-85
2023/11/04 11:26:48;;;;;;;0.20;0.20;;;;;;;10.19;100.00;94917.19;7392155;19;20013;-85
2023/11/04 11:29:22;;;;;;;0.63;0.20;;;;;;;10.14;100.00;94915.47;7389111;19;20024;-85